This is the latest recevied weather packets stored in our database for station/object KU9TRY. If no packets are shown the sender has not sent any weather packets the latest 10 day(s).
| Time | Temp. | Humidity | Pressure | Rain* | Wind** | Luminosity | Snow |
|---|---|---|---|---|---|---|---|
| 1787673992 | 28.89° C | 46% | 1019.6 hPa | 0 mm | - | 890 W/m² | - |
| 1787673688 | 28.89° C | 54% | 1019.7 hPa | 0 mm | - | 881 W/m² | - |
| 1787673388 | 28.89° C | 53% | 1019.7 hPa | 0 mm | - | 871 W/m² | - |
| 1787673082 | 27.78° C | 53% | 1019.7 hPa | 0 mm | - | 860 W/m² | - |
| 1787672782 | 27.78° C | 55% | 1019.8 hPa | 0 mm | - | 850 W/m² | - |
| 1787672478 | 27.78° C | 54% | 1019.8 hPa | 0 mm | - | 821 W/m² | - |
| 1787672177 | 27.22° C | 57% | 1019.8 hPa | 0 mm | - | 714 W/m² | - |
| 1787671871 | 26.67° C | 59% | 1019.9 hPa | 0 mm | - | 815 W/m² | - |
| 1787671568 | 26.67° C | 60% | 1019.9 hPa | 0 mm | - | 802 W/m² | - |
| 1787671268 | 26.67° C | 60% | 1019.9 hPa | 0 mm | - | 790 W/m² | - |
| 1787670962 | 26.67° C | 64% | 1020 hPa | 0 mm | - | 776 W/m² | - |
| 1787670658 | 26.11° C | 63% | 1019.8 hPa | 0 mm | - | 762 W/m² | - |
| 1787670357 | 25.56° C | 64% | 1019.9 hPa | 0 mm | - | 751 W/m² | - |
| 1787670053 | 25° C | 66% | 1020 hPa | 0 mm | - | 643 W/m² | - |
| 1787669747 | 25.56° C | 64% | 1019.9 hPa | 0 mm | - | 534 W/m² | - |
| 1787669442 | 25° C | 67% | 1020 hPa | 0 mm | - | 724 W/m² | - |
| 1787669138 | 24.44° C | 71% | 1020 hPa | 0 mm | - | 696 W/m² | - |
| 1787668834 | 24.44° C | 73% | 1020.1 hPa | 0 mm | - | 680 W/m² | - |
| 1787668530 | 23.89° C | 75% | 1020.1 hPa | 0 mm | - | 674 W/m² | - |
| 1787668225 | 23.89° C | 75% | 1020.1 hPa | 0 mm | - | 662 W/m² | - |
| 1787667925 | 22.78° C | 75% | 1019.8 hPa | 0 mm | - | 617 W/m² | - |
| 1787667620 | 22.78° C | 79% | 1019.9 hPa | 0 mm | - | 601 W/m² | - |
| 1787667316 | 22.22° C | 79% | 1019.8 hPa | 0 mm | - | 595 W/m² | - |
| 1787667015 | 21.11° C | 81% | 1019.9 hPa | 0 mm | - | 617 W/m² | - |
| 1787666711 | 20.56° C | 85% | 1020 hPa | 0 mm | - | 606 W/m² | - |
* Rain latest hour (hover to see other rain measurements)
** Current wind speed in m/s (hover to see current wind gust speed)